createdAt,value
2022-11-20T00:01:41.885Z,17.95
2022-11-20T00:04:12.946Z,17.65
2022-11-20T00:06:41.406Z,19.05
2022-11-20T00:09:12.491Z,18.88
2022-11-20T00:11:42.005Z,17.75
2022-11-20T00:14:12.320Z,17.95
2022-11-20T00:16:42.689Z,17.23
2022-11-20T00:19:12.024Z,17.40
2022-11-20T00:21:43.692Z,18.05
2022-11-20T00:24:14.152Z,17.10
2022-11-20T00:26:42.597Z,17.13
2022-11-20T00:29:12.042Z,16.08
2022-11-20T00:31:42.754Z,17.17
2022-11-20T00:34:12.105Z,18.38
2022-11-20T00:36:41.016Z,17.77
2022-11-20T00:39:10.187Z,17.92
2022-11-20T00:41:39.123Z,16.05
2022-11-20T00:44:07.730Z,16.60
2022-11-20T00:46:36.238Z,16.98
2022-11-20T00:49:06.274Z,17.35
2022-11-20T00:51:34.964Z,17.95
2022-11-20T00:54:03.810Z,17.13
2022-11-20T00:56:32.779Z,16.30
2022-11-20T00:59:02.518Z,16.50
2022-11-20T01:01:31.787Z,14.63
2022-11-20T01:04:02.323Z,16.40
2022-11-20T01:06:37.293Z,10.68
2022-11-20T01:09:08.530Z,9.68
2022-11-20T01:11:38.918Z,15.25
2022-11-20T01:14:11.349Z,15.90
2022-11-20T01:16:41.619Z,17.02
2022-11-20T01:19:17.547Z,16.10
2022-11-20T01:21:50.796Z,16.13
2022-11-20T01:24:21.536Z,14.93
2022-11-20T01:26:52.620Z,17.60
2022-11-20T01:29:24.954Z,16.17
2022-11-20T01:31:54.336Z,15.60
2022-11-20T01:34:24.460Z,16.95
2022-11-20T01:36:55.277Z,16.55
2022-11-20T01:39:25.776Z,16.42
2022-11-20T01:42:15.613Z,17.88
2022-11-20T01:44:56.415Z,16.67
2022-11-20T01:47:32.759Z,17.73
2022-11-20T01:50:07.504Z,16.73
2022-11-20T01:52:42.395Z,18.15
2022-11-20T01:55:15.193Z,16.63
2022-11-20T01:58:24.963Z,17.73
2022-11-20T02:00:53.851Z,15.85
2022-11-20T02:03:23.304Z,17.30
2022-11-20T02:05:56.576Z,16.38
2022-11-20T02:08:26.737Z,17.52
2022-11-20T02:10:55.280Z,17.17
2022-11-20T02:13:41.455Z,16.40
2022-11-20T02:16:13.835Z,17.33
2022-11-20T02:18:43.679Z,16.88
2022-11-20T02:21:21.469Z,16.85
2022-11-20T02:24:13.681Z,16.52
2022-11-20T02:26:52.197Z,16.63
2022-11-20T02:29:25.766Z,16.55
2022-11-20T02:31:57.503Z,17.33
2022-11-20T02:34:26.076Z,18.15
2022-11-20T02:36:55.258Z,17.02
2022-11-20T02:39:27.605Z,16.58
2022-11-20T02:41:57.939Z,16.33
2022-11-20T02:44:26.364Z,17.50
2022-11-20T02:46:55.114Z,16.58
2022-11-20T02:49:23.948Z,15.82
2022-11-20T02:51:52.714Z,16.13
2022-11-20T02:54:21.091Z,15.82
2022-11-20T02:56:50.867Z,16.05
2022-11-20T02:59:19.315Z,16.13
2022-11-20T03:01:48.559Z,15.48
2022-11-20T03:04:17.585Z,16.10
2022-11-20T03:06:45.939Z,16.48
2022-11-20T03:09:15.168Z,15.75
2022-11-20T03:11:43.807Z,16.52
2022-11-20T03:14:14.266Z,15.95
2022-11-20T03:16:43.179Z,16.48
2022-11-20T03:19:12.049Z,16.30
2022-11-20T03:21:40.597Z,16.88
2022-11-20T03:24:10.179Z,15.77
2022-11-20T03:26:41.757Z,16.08
2022-11-20T03:29:10.641Z,11.02
2022-11-20T03:31:42.706Z,15.63
2022-11-20T03:34:12.905Z,16.38
2022-11-20T03:36:42.620Z,16.02
2022-11-20T03:39:12.145Z,17.15
2022-11-20T03:41:43.278Z,15.32
2022-11-20T03:44:14.179Z,17.35
2022-11-20T03:46:43.941Z,16.65
2022-11-20T03:49:12.596Z,15.75
2022-11-20T03:51:41.101Z,15.07
2022-11-20T03:54:10.969Z,14.82
2022-11-20T03:56:40.765Z,15.07
2022-11-20T03:59:12.416Z,15.50
2022-11-20T04:04:17.095Z,15.32
2022-11-20T04:06:45.524Z,15.07
2022-11-20T04:09:13.794Z,14.35
2022-11-20T04:11:43.351Z,15.07
2022-11-20T04:14:16.414Z,15.70
2022-11-20T04:16:45.515Z,14.80
2022-11-20T04:19:18.317Z,14.77
2022-11-20T04:21:48.152Z,15.52
2022-11-20T04:24:16.801Z,14.52
2022-11-20T04:26:45.086Z,15.30
2022-11-20T04:29:14.213Z,14.80
2022-11-20T04:31:43.623Z,13.90
2022-11-20T04:34:13.905Z,14.15
2022-11-20T04:36:43.977Z,15.38
2022-11-20T04:39:16.922Z,14.05
2022-11-20T04:44:13.946Z,13.77
2022-11-20T04:46:44.425Z,15.63
2022-11-20T04:49:13.891Z,15.55
2022-11-20T04:51:44.594Z,14.50
2022-11-20T04:54:13.636Z,15.18
2022-11-20T04:56:42.677Z,14.77
2022-11-20T04:59:10.909Z,14.60
2022-11-20T05:01:39.682Z,13.75
2022-11-20T05:04:08.434Z,14.70
2022-11-20T05:06:37.012Z,13.60
2022-11-20T05:09:07.470Z,13.68
2022-11-20T05:11:36.531Z,14.90
2022-11-20T05:14:04.991Z,14.52
2022-11-20T05:16:33.379Z,13.75
2022-11-20T05:19:01.826Z,14.52
2022-11-20T05:21:32.578Z,14.63
2022-11-20T05:24:02.601Z,14.50
2022-11-20T05:26:32.476Z,15.30
2022-11-20T05:29:01.015Z,14.85
2022-11-20T05:31:29.972Z,15.23
2022-11-20T05:33:59.143Z,16.77
2022-11-20T05:36:27.691Z,16.92
2022-11-20T05:39:01.266Z,17.50
2022-11-20T05:41:30.769Z,15.82
2022-11-20T05:44:00.746Z,15.35
2022-11-20T05:46:30.731Z,15.80
2022-11-20T05:48:59.872Z,14.75
2022-11-20T05:51:29.881Z,16.03
2022-11-20T05:53:59.754Z,14.70
2022-11-20T05:56:28.470Z,14.13
2022-11-20T05:58:56.735Z,14.05
2022-11-20T06:01:28.406Z,15.18
2022-11-20T06:03:56.972Z,15.63
2022-11-20T06:06:26.379Z,14.95
2022-11-20T06:08:56.728Z,14.23
2022-11-20T06:11:24.998Z,15.02
2022-11-20T06:13:53.551Z,15.80
2022-11-20T06:16:22.927Z,14.88
2022-11-20T06:18:52.770Z,15.15
2022-11-20T06:21:22.961Z,14.43
2022-11-20T06:23:52.359Z,15.30
2022-11-20T06:26:23.683Z,15.82
2022-11-20T06:31:23.833Z,17.55
2022-11-20T06:33:54.691Z,17.92
2022-11-20T06:36:24.668Z,15.73
2022-11-20T06:38:53.448Z,15.07
2022-11-20T06:41:23.891Z,15.98
2022-11-20T06:43:52.710Z,13.20
2022-11-20T06:46:22.170Z,16.05
2022-11-20T06:48:54.129Z,16.85
2022-11-20T06:51:22.925Z,15.43
2022-11-20T06:53:51.439Z,15.70
2022-11-20T06:56:20.134Z,15.50
2022-11-20T06:58:48.799Z,14.82
2022-11-20T07:01:17.885Z,16.15
2022-11-20T07:03:49.983Z,16.83
2022-11-20T07:06:21.523Z,17.73
2022-11-20T07:08:52.285Z,15.27
2022-11-20T07:11:22.146Z,15.25
2022-11-20T07:13:50.692Z,15.88
2022-11-20T07:16:19.204Z,17.83
2022-11-20T07:18:50.849Z,18.67
2022-11-20T07:21:22.184Z,19.80
2022-11-20T07:23:50.763Z,26.00
2022-11-20T07:26:19.154Z,23.80
2022-11-20T07:28:47.777Z,17.65
2022-11-20T07:31:19.434Z,15.63
2022-11-20T07:33:48.902Z,15.88
2022-11-20T07:36:17.202Z,16.55
2022-11-20T07:38:47.478Z,16.08
2022-11-20T07:41:17.127Z,16.23
2022-11-20T07:43:45.563Z,10.48
2022-11-20T07:46:14.155Z,11.75
2022-11-20T07:48:42.638Z,12.77
2022-11-20T07:51:11.260Z,11.88
2022-11-20T07:53:40.003Z,12.57
2022-11-20T07:56:10.611Z,15.18
2022-11-20T07:58:39.916Z,14.30
2022-11-20T08:01:09.816Z,13.25
2022-11-20T08:03:39.664Z,13.18
2022-11-20T08:06:09.895Z,12.00
2022-11-20T08:08:42.998Z,13.40
2022-11-20T08:11:30.702Z,11.93
2022-11-20T08:14:14.743Z,11.73
2022-11-20T08:16:45.129Z,12.35
2022-11-20T08:19:13.769Z,12.60
2022-11-20T08:21:42.621Z,12.45
2022-11-20T08:24:11.959Z,13.32
2022-11-20T08:26:43.165Z,12.35
2022-11-20T08:29:11.646Z,11.67
2022-11-20T08:31:40.766Z,13.50
2022-11-20T08:34:12.059Z,12.57
2022-11-20T08:36:43.590Z,12.93
2022-11-20T08:39:14.721Z,12.55
2022-11-20T08:41:45.823Z,11.63
2022-11-20T08:44:14.489Z,13.43
2022-11-20T08:46:44.816Z,11.88
2022-11-20T08:49:14.904Z,12.65
2022-11-20T08:51:43.849Z,12.73
2022-11-20T08:54:16.403Z,11.20
2022-11-20T08:56:47.403Z,11.48
2022-11-20T08:59:44.151Z,10.85
2022-11-20T09:02:06.758Z,10.35
2022-11-20T09:04:35.306Z,11.35
2022-11-20T09:07:04.778Z,10.90
2022-11-20T09:09:33.810Z,14.93
2022-11-20T09:12:04.384Z,14.25
2022-11-20T09:14:36.410Z,16.33
2022-11-20T09:17:06.548Z,13.90
2022-11-20T09:19:38.294Z,14.93
2022-11-20T09:22:09.918Z,13.90
2022-11-20T09:24:38.618Z,14.18
2022-11-20T09:27:09.675Z,15.45
2022-11-20T09:32:08.321Z,14.75
2022-11-20T09:34:37.121Z,14.45
2022-11-20T09:37:07.894Z,15.30
2022-11-20T09:39:40.007Z,15.82
2022-11-20T09:42:33.796Z,15.97
2022-11-20T09:45:23.095Z,15.77
2022-11-20T09:48:17.607Z,14.70
2022-11-20T09:50:51.832Z,14.02
2022-11-20T09:53:33.483Z,14.52
2022-11-20T09:56:04.721Z,18.23
2022-11-20T09:58:37.907Z,15.80
2022-11-20T10:01:29.545Z,20.33
2022-11-20T10:04:03.431Z,20.98
2022-11-20T10:06:39.530Z,20.40
2022-11-20T10:09:24.303Z,20.50
2022-11-20T10:12:05.746Z,17.35
2022-11-20T10:14:52.748Z,17.77
2022-11-20T10:17:31.625Z,17.17
2022-11-20T10:20:18.827Z,20.75
2022-11-20T10:22:58.667Z,19.45
2022-11-20T10:25:36.542Z,21.85
2022-11-20T10:28:18.243Z,19.08
2022-11-20T10:30:55.646Z,18.10
2022-11-20T10:33:50.030Z,18.88
2022-11-20T10:36:26.282Z,17.13
2022-11-20T10:39:01.686Z,16.85
2022-11-20T10:41:37.199Z,15.48
2022-11-20T10:44:12.290Z,15.90
2022-11-20T10:46:46.305Z,16.00
2022-11-20T10:49:23.507Z,15.98
2022-11-20T10:52:03.255Z,16.08
2022-11-20T10:54:39.187Z,14.98
2022-11-20T10:57:18.014Z,18.05
2022-11-20T11:00:03.714Z,17.20
2022-11-20T11:02:41.470Z,15.77
2022-11-20T11:05:20.664Z,15.25
2022-11-20T11:07:53.160Z,16.13
2022-11-20T11:10:28.208Z,13.68
2022-11-20T11:12:57.535Z,16.67
2022-11-20T11:15:31.355Z,16.98
2022-11-20T11:18:01.280Z,16.02
2022-11-20T11:20:32.877Z,16.27
2022-11-20T11:23:02.112Z,17.35
2022-11-20T11:25:34.904Z,32.83
2022-11-20T11:30:45.200Z,19.13
2022-11-20T11:33:22.761Z,17.83
2022-11-20T11:35:54.782Z,16.67
2022-11-20T11:38:31.104Z,15.20
2022-11-20T11:41:00.630Z,16.40
2022-11-20T11:43:51.168Z,15.52
2022-11-20T11:46:35.370Z,14.93
2022-11-20T11:49:19.234Z,16.25
2022-11-20T11:52:04.756Z,21.50
2022-11-20T11:54:39.609Z,21.58
2022-11-20T11:57:16.476Z,20.83
2022-11-20T11:59:58.423Z,18.35
2022-11-20T12:02:37.030Z,23.25
2022-11-20T12:05:20.032Z,21.48
2022-11-20T12:07:52.702Z,22.35
2022-11-20T12:10:28.270Z,18.70
2022-11-20T12:13:04.808Z,24.92
2022-11-20T12:15:41.072Z,21.00
2022-11-20T12:18:20.596Z,20.42
2022-11-20T12:21:18.971Z,20.10
2022-11-20T12:24:12.958Z,20.25
2022-11-20T12:27:03.799Z,21.55
2022-11-20T12:29:45.519Z,21.83
2022-11-20T12:35:29.559Z,28.50
2022-11-20T12:38:16.902Z,26.80
2022-11-20T12:40:52.683Z,21.52
2022-11-20T12:43:41.989Z,19.05
2022-11-20T12:46:28.126Z,18.42
2022-11-20T12:49:26.268Z,18.63
2022-11-20T12:52:08.683Z,15.25
2022-11-20T12:54:51.980Z,15.60
2022-11-20T12:57:26.945Z,17.27
2022-11-20T13:00:05.683Z,15.18
2022-11-20T13:02:47.264Z,15.18
2022-11-20T13:05:24.347Z,14.90
2022-11-20T13:07:55.779Z,16.38
2022-11-20T13:10:34.109Z,16.88
2022-11-20T13:13:11.328Z,17.17
2022-11-20T13:15:50.363Z,18.80
2022-11-20T13:18:20.074Z,17.95
2022-11-20T13:20:52.622Z,17.05
2022-11-20T13:23:28.694Z,16.15
2022-11-20T13:26:18.195Z,18.30
2022-11-20T13:28:48.662Z,16.05
2022-11-20T13:31:33.120Z,16.48
2022-11-20T13:34:04.229Z,17.85
2022-11-20T13:36:33.779Z,16.23
2022-11-20T13:39:02.749Z,14.77
2022-11-20T13:41:36.864Z,17.23
2022-11-20T13:44:15.900Z,26.20
2022-11-20T13:46:47.352Z,22.05
2022-11-20T13:49:25.288Z,25.80
2022-11-20T13:52:05.114Z,25.45
2022-11-20T13:54:57.792Z,32.33
2022-11-20T13:57:55.207Z,37.65
2022-11-20T14:00:25.485Z,39.10
2022-11-20T14:03:13.441Z,36.28
2022-11-20T14:05:52.340Z,44.45
2022-11-20T14:08:29.509Z,24.10
2022-11-20T14:11:06.718Z,19.67
2022-11-20T14:13:36.982Z,16.95
2022-11-20T14:16:05.916Z,14.98
2022-11-20T14:18:34.683Z,16.20
2022-11-20T14:21:04.988Z,16.38
2022-11-20T14:23:33.939Z,14.38
2022-11-20T14:26:05.471Z,14.25
2022-11-20T14:31:04.228Z,13.07
2022-11-20T14:33:35.875Z,14.88
2022-11-20T14:36:05.274Z,16.10
2022-11-20T14:38:35.000Z,16.80
2022-11-20T14:41:11.116Z,22.13
2022-11-20T14:43:40.722Z,30.67
2022-11-20T14:46:13.233Z,46.72
2022-11-20T14:48:45.724Z,42.72
2022-11-20T14:51:25.171Z,36.30
2022-11-20T14:53:53.670Z,36.72
2022-11-20T14:56:29.718Z,34.97
2022-11-20T14:58:58.868Z,37.13
2022-11-20T15:01:34.819Z,34.00
2022-11-20T15:04:07.770Z,25.90
2022-11-20T15:06:36.659Z,19.77
2022-11-20T15:09:07.530Z,18.00
2022-11-20T15:11:38.000Z,19.42
2022-11-20T15:14:09.072Z,17.70
2022-11-20T15:16:39.531Z,18.48
2022-11-20T15:19:19.720Z,17.17
2022-11-20T15:21:48.853Z,18.10
2022-11-20T15:24:17.833Z,19.00
2022-11-20T15:26:47.039Z,15.68
2022-11-20T15:29:19.825Z,18.05
2022-11-20T15:31:49.613Z,17.48
2022-11-20T15:34:18.326Z,19.52
2022-11-20T15:36:47.015Z,17.25
2022-11-20T15:39:16.756Z,17.65
2022-11-20T15:41:45.212Z,19.52
2022-11-20T15:44:14.090Z,16.77
2022-11-20T15:46:46.272Z,16.65
2022-11-20T15:49:19.785Z,16.02
2022-11-20T15:51:51.179Z,16.13
2022-11-20T15:54:22.733Z,18.40
2022-11-20T15:56:54.354Z,21.98
2022-11-20T15:59:23.077Z,20.55
2022-11-20T16:01:52.053Z,20.55
2022-11-20T16:04:22.470Z,17.63
2022-11-20T16:06:52.232Z,19.08
2022-11-20T16:09:21.681Z,19.98
2022-11-20T16:11:50.849Z,22.83
2022-11-20T16:14:36.496Z,24.92
2022-11-20T16:17:05.659Z,31.30
2022-11-20T16:19:36.033Z,30.95
2022-11-20T16:22:05.882Z,28.63
2022-11-20T16:24:34.889Z,28.63
2022-11-20T16:27:04.339Z,27.63
2022-11-20T16:29:33.246Z,28.83
2022-11-20T16:32:02.231Z,23.52
2022-11-20T16:34:31.122Z,24.38
2022-11-20T16:37:01.188Z,23.65
2022-11-20T16:39:30.252Z,21.38
2022-11-20T16:41:58.953Z,18.48
2022-11-20T16:44:27.652Z,19.27
2022-11-20T16:46:57.542Z,18.60
2022-11-20T16:49:26.477Z,17.23
2022-11-20T16:51:55.686Z,17.20
2022-11-20T16:54:25.899Z,14.48
2022-11-20T16:56:55.587Z,15.80
2022-11-20T16:59:24.276Z,16.15
2022-11-20T17:01:53.179Z,17.10
2022-11-20T17:04:24.077Z,16.05
2022-11-20T17:06:53.419Z,15.98
2022-11-20T17:09:22.205Z,17.10
2022-11-20T17:11:52.852Z,17.92
2022-11-20T17:14:22.487Z,17.85
2022-11-20T17:16:51.554Z,19.80
2022-11-20T17:19:20.598Z,18.95
2022-11-20T17:21:50.000Z,17.42
2022-11-20T17:24:18.719Z,18.30
2022-11-20T17:26:51.768Z,17.98
2022-11-20T17:29:24.438Z,18.08
2022-11-20T17:31:55.517Z,16.98
2022-11-20T17:34:25.055Z,19.58
2022-11-20T17:36:55.191Z,18.77
2022-11-20T17:39:23.796Z,17.85
2022-11-20T17:42:07.441Z,17.92
2022-11-20T17:44:35.979Z,19.52
2022-11-20T17:47:04.661Z,20.38
2022-11-20T17:49:33.301Z,23.95
2022-11-20T17:52:06.768Z,28.17
2022-11-20T17:54:35.271Z,31.95
2022-11-20T17:57:34.786Z,30.88
2022-11-20T18:00:03.762Z,30.10
2022-11-20T18:02:34.032Z,26.45
2022-11-20T18:05:06.015Z,28.40
2022-11-20T18:07:38.641Z,27.67
2022-11-20T18:10:11.820Z,29.08
2022-11-20T18:12:44.342Z,29.75
2022-11-20T18:15:12.949Z,25.60
2022-11-20T18:17:41.705Z,24.40
2022-11-20T18:20:28.367Z,23.13
2022-11-20T18:22:57.797Z,20.60
2022-11-20T18:25:26.281Z,22.45
2022-11-20T18:27:56.704Z,21.83
2022-11-20T18:30:26.030Z,21.60
2022-11-20T18:32:54.401Z,23.52
2022-11-20T18:35:28.649Z,23.95
2022-11-20T18:37:57.384Z,24.25
2022-11-20T18:40:26.279Z,22.02
2022-11-20T18:43:22.183Z,21.20
2022-11-20T18:45:52.952Z,20.48
2022-11-20T18:48:21.643Z,21.13
2022-11-20T18:50:52.108Z,19.73
2022-11-20T18:53:20.826Z,19.33
2022-11-20T18:55:49.887Z,20.02
2022-11-20T18:58:19.803Z,20.40
2022-11-20T19:00:48.347Z,21.15
2022-11-20T19:03:19.130Z,21.02
2022-11-20T19:05:49.706Z,22.17
2022-11-20T19:08:18.299Z,19.45
2022-11-20T19:10:47.281Z,20.75
2022-11-20T19:13:15.907Z,19.58
2022-11-20T19:15:45.870Z,20.92
2022-11-20T19:18:14.318Z,21.67
2022-11-20T19:20:43.248Z,20.83
2022-11-20T19:23:11.818Z,23.15
2022-11-20T19:25:40.509Z,23.55
2022-11-20T19:28:09.001Z,24.90
2022-11-20T19:30:37.748Z,26.90
2022-11-20T19:33:07.911Z,27.88
2022-11-20T19:35:37.145Z,27.27
2022-11-20T19:38:06.369Z,26.50
2022-11-20T19:40:35.790Z,27.58
2022-11-20T19:43:05.569Z,26.52
2022-11-20T19:45:34.879Z,27.83
2022-11-20T19:48:07.941Z,27.95
2022-11-20T19:50:38.678Z,28.15
2022-11-20T19:53:07.681Z,28.88
2022-11-20T19:55:36.425Z,26.40
2022-11-20T19:58:05.110Z,22.17
2022-11-20T20:00:36.236Z,23.83
2022-11-20T20:03:04.561Z,22.73
2022-11-20T20:05:35.617Z,24.85
2022-11-20T20:08:05.684Z,22.90
2022-11-20T20:10:34.560Z,24.23
2022-11-20T20:13:03.175Z,24.23
2022-11-20T20:15:32.011Z,23.33
2022-11-20T20:18:00.893Z,24.55
2022-11-20T20:20:31.659Z,24.85
2022-11-20T20:23:00.329Z,24.30
2022-11-20T20:25:30.352Z,23.58
2022-11-20T20:27:58.809Z,23.75
2022-11-20T20:30:27.380Z,25.35
2022-11-20T20:32:56.500Z,22.33
2022-11-20T20:35:27.502Z,23.17
2022-11-20T20:37:56.010Z,25.25
2022-11-20T20:40:24.735Z,25.48
2022-11-20T20:42:54.657Z,25.27
2022-11-20T20:45:23.766Z,25.15
2022-11-20T20:47:52.739Z,26.65
2022-11-20T20:50:21.476Z,27.13
2022-11-20T20:52:50.513Z,26.65
2022-11-20T20:55:19.084Z,28.15
2022-11-20T20:57:47.502Z,24.17
2022-11-20T21:00:19.151Z,24.92
2022-11-20T21:02:47.583Z,25.10
2022-11-20T21:05:16.091Z,24.23
2022-11-20T21:07:58.468Z,26.00
2022-11-20T21:10:27.007Z,24.70
2022-11-20T21:12:55.482Z,29.45
2022-11-20T21:15:25.200Z,25.80
2022-11-20T21:17:53.885Z,25.85
2022-11-20T21:20:43.083Z,24.33
2022-11-20T21:23:12.357Z,23.25
2022-11-20T21:25:41.666Z,25.13
2022-11-20T21:28:15.492Z,27.00
2022-11-20T21:30:48.408Z,27.20
2022-11-20T21:33:16.845Z,28.17
2022-11-20T21:35:45.803Z,28.52
2022-11-20T21:38:14.270Z,28.17
2022-11-20T21:40:44.070Z,29.30
2022-11-20T21:43:12.605Z,29.27
2022-11-20T21:45:41.222Z,28.80
2022-11-20T21:48:11.998Z,26.67
2022-11-20T21:50:40.627Z,26.90
2022-11-20T21:53:09.294Z,25.25
2022-11-20T21:55:38.177Z,24.05
2022-11-20T21:58:07.110Z,23.88
2022-11-20T22:00:35.672Z,24.05
2022-11-20T22:03:04.601Z,24.77
2022-11-20T22:05:34.880Z,23.67
2022-11-20T22:08:03.722Z,23.10
2022-11-20T22:10:32.644Z,23.35
2022-11-20T22:13:14.848Z,22.92
2022-11-20T22:15:59.965Z,23.08
2022-11-20T22:18:29.246Z,22.73
2022-11-20T22:21:04.887Z,22.77
2022-11-20T22:23:33.462Z,21.92
2022-11-20T22:26:04.783Z,20.15
2022-11-20T22:28:33.622Z,22.13
2022-11-20T22:31:02.643Z,21.50
2022-11-20T22:33:32.254Z,22.08
2022-11-20T22:36:07.602Z,20.42
2022-11-20T22:38:39.470Z,21.98
2022-11-20T22:41:09.980Z,21.02
2022-11-20T22:43:39.529Z,21.73
2022-11-20T22:46:09.850Z,21.70
2022-11-20T22:48:39.734Z,21.90
2022-11-20T22:51:10.968Z,22.30
2022-11-20T22:53:40.075Z,21.52
2022-11-20T22:56:11.020Z,22.42
2022-11-20T22:58:40.206Z,22.40
2022-11-20T23:01:12.403Z,22.38
2022-11-20T23:03:43.229Z,21.23
2022-11-20T23:06:13.624Z,22.05
2022-11-20T23:08:43.384Z,22.48
2022-11-20T23:11:14.543Z,22.60
2022-11-20T23:13:43.753Z,20.92
2022-11-20T23:16:14.870Z,22.70
2022-11-20T23:18:44.452Z,22.05
2022-11-20T23:21:16.198Z,22.50
2022-11-20T23:23:48.597Z,22.02
2022-11-20T23:26:18.723Z,20.42
2022-11-20T23:28:47.485Z,20.85
2022-11-20T23:31:17.362Z,21.65
2022-11-20T23:33:47.145Z,21.60
2022-11-20T23:36:17.723Z,21.52
2022-11-20T23:38:46.394Z,21.23
2022-11-20T23:41:16.326Z,23.48
2022-11-20T23:43:44.899Z,23.08
2022-11-20T23:46:16.481Z,22.83
2022-11-20T23:48:46.304Z,21.80
2022-11-20T23:51:15.684Z,22.60
2022-11-20T23:53:45.909Z,21.73
2022-11-20T23:56:16.142Z,20.77
2022-11-20T23:58:44.860Z,21.75
